createdAt,value
2022-11-20T00:01:26.917Z,16.42
2022-11-20T00:03:56.005Z,16.80
2022-11-20T00:06:23.768Z,15.55
2022-11-20T00:08:51.599Z,16.73
2022-11-20T00:11:21.520Z,15.32
2022-11-20T00:13:50.858Z,15.15
2022-11-20T00:16:20.513Z,18.23
2022-11-20T00:18:48.215Z,17.08
2022-11-20T00:21:22.106Z,15.85
2022-11-20T00:23:50.574Z,17.98
2022-11-20T00:26:19.998Z,17.75
2022-11-20T00:28:52.475Z,17.52
2022-11-20T00:31:19.797Z,17.05
2022-11-20T00:33:47.317Z,18.60
2022-11-20T00:36:17.267Z,17.77
2022-11-20T00:38:45.269Z,17.65
2022-11-20T00:41:15.283Z,18.38
2022-11-20T00:43:42.917Z,18.27
2022-11-20T00:46:18.882Z,17.48
2022-11-20T00:48:46.321Z,16.92
2022-11-20T00:51:21.806Z,17.02
2022-11-20T00:53:48.927Z,18.10
2022-11-20T00:56:18.227Z,17.35
2022-11-20T00:58:47.628Z,16.50
2022-11-20T01:03:47.675Z,15.63
2022-11-20T01:06:20.398Z,15.30
2022-11-20T01:08:48.399Z,17.20
2022-11-20T01:11:18.147Z,15.27
2022-11-20T01:13:46.667Z,17.48
2022-11-20T01:16:34.950Z,16.58
2022-11-20T01:19:04.667Z,16.40
2022-11-20T01:21:34.407Z,15.95
2022-11-20T01:24:02.027Z,16.00
2022-11-20T01:26:31.334Z,16.50
2022-11-20T01:28:59.761Z,14.90
2022-11-20T01:31:29.252Z,14.73
2022-11-20T01:33:59.599Z,14.43
2022-11-20T01:36:29.000Z,14.18
2022-11-20T01:38:58.721Z,16.33
2022-11-20T01:41:49.158Z,15.15
2022-11-20T01:44:19.872Z,16.30
2022-11-20T01:47:00.366Z,15.02
2022-11-20T01:49:36.939Z,14.63
2022-11-20T01:52:24.119Z,15.95
2022-11-20T01:55:14.188Z,13.77
2022-11-20T01:57:42.046Z,14.30
2022-11-20T02:00:12.891Z,14.73
2022-11-20T02:02:43.194Z,14.18
2022-11-20T02:05:17.901Z,14.73
2022-11-20T02:07:46.367Z,16.10
2022-11-20T02:10:13.644Z,17.73
2022-11-20T02:12:59.634Z,16.85
2022-11-20T02:15:30.219Z,15.40
2022-11-20T02:17:57.958Z,13.57
2022-11-20T02:20:25.173Z,14.88
2022-11-20T02:22:59.218Z,14.75
2022-11-20T02:25:28.728Z,16.30
2022-11-20T02:27:56.183Z,14.52
2022-11-20T02:30:23.287Z,14.98
2022-11-20T02:32:50.290Z,14.30
2022-11-20T02:35:20.185Z,13.52
2022-11-20T02:37:51.185Z,15.73
2022-11-20T02:40:18.273Z,13.40
2022-11-20T02:42:45.291Z,15.13
2022-11-20T02:45:13.128Z,16.88
2022-11-20T02:47:40.479Z,15.07
2022-11-20T02:50:07.593Z,14.60
2022-11-20T02:52:34.590Z,14.30
2022-11-20T02:55:01.750Z,14.65
2022-11-20T02:57:28.974Z,14.50
2022-11-20T02:59:56.003Z,14.73
2022-11-20T03:02:23.003Z,15.35
2022-11-20T03:04:50.381Z,14.57
2022-11-20T03:07:17.373Z,15.18
2022-11-20T03:09:44.457Z,14.98
2022-11-20T03:12:11.413Z,14.48
2022-11-20T03:14:38.467Z,14.90
2022-11-20T03:17:05.487Z,14.13
2022-11-20T03:19:32.700Z,14.70
2022-11-20T03:22:01.027Z,14.32
2022-11-20T03:24:28.278Z,13.80
2022-11-20T03:26:55.317Z,14.13
2022-11-20T03:29:22.472Z,14.32
2022-11-20T03:31:49.655Z,14.48
2022-11-20T03:34:16.623Z,13.35
2022-11-20T03:36:44.066Z,13.70
2022-11-20T03:39:11.273Z,14.07
2022-11-20T03:41:41.087Z,13.50
2022-11-20T03:44:10.503Z,12.25
2022-11-20T03:46:37.772Z,13.18
2022-11-20T03:49:05.123Z,13.32
2022-11-20T03:51:34.345Z,13.18
2022-11-20T03:54:06.874Z,12.30
2022-11-20T03:56:36.849Z,12.38
2022-11-20T03:59:05.329Z,13.00
2022-11-20T04:01:35.126Z,12.27
2022-11-20T04:04:02.590Z,13.63
2022-11-20T04:06:38.380Z,13.27
2022-11-20T04:09:07.064Z,11.63
2022-11-20T04:11:36.194Z,11.70
2022-11-20T04:14:06.844Z,12.25
2022-11-20T04:16:36.585Z,12.38
2022-11-20T04:19:06.260Z,11.13
2022-11-20T04:21:33.624Z,11.77
2022-11-20T04:24:00.704Z,11.15
2022-11-20T04:26:29.131Z,12.00
2022-11-20T04:28:56.838Z,11.88
2022-11-20T04:31:29.425Z,12.75
2022-11-20T04:33:59.665Z,13.45
2022-11-20T04:36:28.018Z,11.98
2022-11-20T04:38:57.836Z,10.75
2022-11-20T04:41:28.057Z,11.23
2022-11-20T04:44:00.429Z,12.75
2022-11-20T04:46:28.666Z,12.20
2022-11-20T04:48:55.840Z,12.30
2022-11-20T04:51:23.317Z,12.25
2022-11-20T04:53:50.672Z,10.60
2022-11-20T04:56:17.704Z,12.60
2022-11-20T04:58:44.724Z,14.20
2022-11-20T05:01:14.676Z,13.10
2022-11-20T05:03:43.503Z,11.90
2022-11-20T05:06:13.220Z,11.23
2022-11-20T05:08:41.069Z,10.88
2022-11-20T05:11:16.433Z,11.52
2022-11-20T05:13:43.497Z,11.60
2022-11-20T05:16:13.450Z,12.43
2022-11-20T05:18:41.281Z,11.95
2022-11-20T05:21:09.936Z,11.68
2022-11-20T05:23:37.186Z,11.65
2022-11-20T05:26:05.781Z,11.52
2022-11-20T05:28:33.599Z,11.20
2022-11-20T05:31:08.385Z,11.20
2022-11-20T05:33:36.388Z,10.88
2022-11-20T05:36:05.006Z,11.63
2022-11-20T05:38:32.484Z,11.75
2022-11-20T05:41:05.516Z,11.02
2022-11-20T05:43:34.720Z,10.77
2022-11-20T05:46:02.691Z,11.90
2022-11-20T05:48:29.803Z,12.88
2022-11-20T05:50:59.323Z,10.98
2022-11-20T05:53:27.801Z,11.00
2022-11-20T05:55:59.700Z,11.60
2022-11-20T05:58:26.796Z,10.63
2022-11-20T06:00:53.822Z,11.95
2022-11-20T06:03:20.953Z,12.20
2022-11-20T06:05:48.444Z,12.27
2022-11-20T06:08:15.581Z,11.65
2022-11-20T06:10:42.615Z,10.75
2022-11-20T06:13:09.661Z,10.88
2022-11-20T06:15:36.689Z,11.95
2022-11-20T06:18:03.808Z,11.38
2022-11-20T06:20:30.784Z,11.32
2022-11-20T06:22:57.734Z,10.40
2022-11-20T06:25:24.782Z,10.43
2022-11-20T06:27:52.803Z,10.38
2022-11-20T06:30:19.894Z,10.00
2022-11-20T06:32:46.948Z,10.70
2022-11-20T06:35:13.981Z,10.90
2022-11-20T06:37:41.056Z,11.75
2022-11-20T06:40:08.968Z,10.90
2022-11-20T06:42:35.971Z,11.55
2022-11-20T06:45:03.102Z,13.32
2022-11-20T06:47:30.035Z,13.02
2022-11-20T06:49:57.017Z,14.23
2022-11-20T06:52:23.978Z,13.45
2022-11-20T06:54:51.007Z,14.63
2022-11-20T06:57:18.165Z,14.35
2022-11-20T06:59:45.155Z,12.98
2022-11-20T07:02:13.106Z,12.48
2022-11-20T07:04:40.596Z,12.70
2022-11-20T07:07:07.617Z,12.20
2022-11-20T07:09:35.121Z,11.18
2022-11-20T07:12:02.172Z,11.30
2022-11-20T07:14:29.758Z,10.52
2022-11-20T07:16:57.162Z,11.93
2022-11-20T07:19:24.291Z,10.32
2022-11-20T07:21:51.719Z,12.80
2022-11-20T07:24:18.739Z,14.38
2022-11-20T07:26:52.305Z,12.65
2022-11-20T07:29:19.692Z,11.82
2022-11-20T07:31:47.256Z,13.13
2022-11-20T07:34:14.384Z,13.95
2022-11-20T07:36:41.386Z,12.60
2022-11-20T07:39:08.414Z,12.73
2022-11-20T07:41:35.486Z,12.63
2022-11-20T07:44:02.529Z,12.60
2022-11-20T07:46:29.595Z,15.70
2022-11-20T07:48:56.596Z,13.63
2022-11-20T07:51:24.378Z,14.55
2022-11-20T07:53:53.230Z,16.30
2022-11-20T07:56:20.905Z,13.93
2022-11-20T07:58:51.029Z,15.85
2022-11-20T08:01:18.490Z,16.30
2022-11-20T08:03:45.471Z,14.02
2022-11-20T08:06:12.543Z,14.05
2022-11-20T08:08:43.101Z,14.48
2022-11-20T08:11:29.070Z,14.70
2022-11-20T08:14:14.672Z,14.20
2022-11-20T08:16:46.798Z,13.75
2022-11-20T08:19:15.377Z,13.10
2022-11-20T08:21:43.039Z,13.52
2022-11-20T08:24:11.274Z,14.00
2022-11-20T08:26:40.126Z,14.30
2022-11-20T08:29:07.552Z,15.85
2022-11-20T08:31:34.676Z,13.05
2022-11-20T08:34:06.289Z,14.68
2022-11-20T08:36:36.408Z,15.48
2022-11-20T08:39:04.442Z,16.08
2022-11-20T08:41:33.937Z,16.40
2022-11-20T08:44:06.246Z,18.35
2022-11-20T08:46:42.109Z,15.02
2022-11-20T08:49:11.769Z,14.10
2022-11-20T08:51:39.399Z,15.52
2022-11-20T08:54:07.594Z,15.88
2022-11-20T08:56:35.412Z,14.20
2022-11-20T08:59:20.573Z,14.68
2022-11-20T09:01:49.782Z,18.70
2022-11-20T09:04:17.039Z,15.20
2022-11-20T09:06:44.371Z,16.17
2022-11-20T09:09:11.637Z,17.10
2022-11-20T09:11:38.870Z,15.25
2022-11-20T09:14:06.174Z,17.38
2022-11-20T09:16:33.425Z,19.52
2022-11-20T09:19:40.647Z,16.73
2022-11-20T09:21:49.382Z,16.13
2022-11-20T09:24:16.989Z,14.32
2022-11-20T09:26:44.275Z,15.73
2022-11-20T09:29:11.953Z,15.85
2022-11-20T09:31:39.350Z,13.60
2022-11-20T09:34:06.364Z,15.98
2022-11-20T09:36:33.386Z,17.08
2022-11-20T09:39:00.611Z,16.73
2022-11-20T09:41:52.213Z,15.80
2022-11-20T09:44:31.706Z,17.48
2022-11-20T09:47:38.925Z,16.10
2022-11-20T09:50:37.552Z,16.08
2022-11-20T09:53:47.376Z,14.93
2022-11-20T09:56:18.395Z,15.73
2022-11-20T09:59:00.925Z,15.70
2022-11-20T10:01:33.296Z,15.38
2022-11-20T10:04:11.897Z,15.77
2022-11-20T10:07:30.829Z,18.17
2022-11-20T10:09:54.641Z,21.55
2022-11-20T10:13:04.539Z,17.98
2022-11-20T10:15:37.101Z,16.90
2022-11-20T10:18:12.764Z,16.35
2022-11-20T10:20:52.315Z,15.93
2022-11-20T10:23:49.111Z,17.17
2022-11-20T10:26:29.452Z,17.30
2022-11-20T10:29:11.344Z,18.10
2022-11-20T10:31:49.557Z,17.45
2022-11-20T10:34:23.950Z,16.50
2022-11-20T10:36:59.421Z,15.85
2022-11-20T10:39:44.947Z,17.48
2022-11-20T10:42:17.085Z,20.63
2022-11-20T10:45:05.808Z,17.13
2022-11-20T10:47:34.169Z,16.58
2022-11-20T10:50:10.877Z,16.92
2022-11-20T10:53:15.265Z,18.30
2022-11-20T10:55:55.048Z,18.48
2022-11-20T10:58:41.331Z,17.73
2022-11-20T11:01:23.501Z,18.33
2022-11-20T11:03:53.309Z,17.83
2022-11-20T11:06:35.472Z,20.45
2022-11-20T11:09:10.118Z,19.70
2022-11-20T11:11:39.398Z,19.55
2022-11-20T11:14:14.948Z,21.73
2022-11-20T11:16:54.746Z,19.02
2022-11-20T11:19:22.788Z,19.95
2022-11-20T11:21:56.129Z,19.30
2022-11-20T11:24:41.619Z,20.45
2022-11-20T11:27:18.846Z,19.63
2022-11-20T11:29:49.276Z,21.90
2022-11-20T11:32:21.973Z,21.20
2022-11-20T11:35:07.724Z,21.75
2022-11-20T11:37:38.054Z,23.13
2022-11-20T11:40:24.690Z,22.48
2022-11-20T11:42:58.941Z,21.92
2022-11-20T11:45:26.794Z,21.88
2022-11-20T11:47:56.795Z,23.13
2022-11-20T11:50:29.123Z,24.20
2022-11-20T11:53:12.760Z,23.05
2022-11-20T11:55:57.465Z,24.58
2022-11-20T11:58:33.275Z,22.58
2022-11-20T12:01:09.441Z,24.75
2022-11-20T12:03:42.958Z,22.83
2022-11-20T12:06:15.607Z,24.83
2022-11-20T12:08:58.767Z,23.85
2022-11-20T12:11:34.835Z,25.45
2022-11-20T12:14:24.996Z,24.33
2022-11-20T12:16:53.775Z,22.48
2022-11-20T12:19:21.414Z,24.35
2022-11-20T12:22:07.958Z,25.63
2022-11-20T12:24:50.300Z,25.65
2022-11-20T12:27:45.346Z,25.23
2022-11-20T12:30:17.895Z,25.55
2022-11-20T12:32:51.214Z,27.88
2022-11-20T12:35:51.087Z,27.63
2022-11-20T12:38:43.068Z,28.65
2022-11-20T12:42:00.137Z,31.40
2022-11-20T12:44:52.144Z,25.67
2022-11-20T12:47:31.144Z,26.08
2022-11-20T12:50:53.364Z,27.25
2022-11-20T12:53:41.697Z,26.98
2022-11-20T12:56:11.540Z,24.85
2022-11-20T12:59:08.586Z,30.60
2022-11-20T13:01:56.948Z,36.63
2022-11-20T13:04:45.177Z,32.28
2022-11-20T13:07:17.083Z,33.78
2022-11-20T13:09:50.815Z,27.80
2022-11-20T13:15:05.292Z,27.85
2022-11-20T13:17:44.158Z,28.85
2022-11-20T13:20:18.086Z,25.05
2022-11-20T13:22:50.568Z,25.42
2022-11-20T13:25:29.547Z,40.15
2022-11-20T13:27:58.939Z,33.38
2022-11-20T13:30:28.160Z,29.17
2022-11-20T13:32:56.771Z,28.15
2022-11-20T13:35:32.640Z,21.95
2022-11-20T13:38:09.120Z,26.23
2022-11-20T13:40:53.020Z,25.63
2022-11-20T13:43:39.777Z,21.25
2022-11-20T13:46:09.352Z,22.92
2022-11-20T13:48:44.606Z,22.67
2022-11-20T13:51:39.982Z,24.95
2022-11-20T13:54:25.614Z,28.52
2022-11-20T13:57:28.572Z,22.23
2022-11-20T14:00:11.845Z,23.13
2022-11-20T14:02:39.487Z,23.58
2022-11-20T14:05:07.069Z,23.05
2022-11-20T14:07:42.134Z,22.80
2022-11-20T14:10:31.663Z,22.40
2022-11-20T14:13:10.591Z,21.58
2022-11-20T14:15:44.655Z,23.10
2022-11-20T14:18:15.479Z,28.45
2022-11-20T14:20:43.678Z,30.77
2022-11-20T14:23:11.718Z,23.90
2022-11-20T14:25:43.650Z,26.30
2022-11-20T14:28:26.698Z,28.90
2022-11-20T14:30:54.697Z,31.40
2022-11-20T14:33:25.779Z,27.85
2022-11-20T14:35:58.469Z,26.45
2022-11-20T14:38:28.242Z,25.65
2022-11-20T14:40:55.557Z,27.42
2022-11-20T14:43:31.621Z,27.02
2022-11-20T14:46:05.189Z,25.13
2022-11-20T14:48:40.415Z,26.17
2022-11-20T14:51:11.409Z,27.13
2022-11-20T14:53:38.662Z,42.08
2022-11-20T14:56:05.768Z,30.92
2022-11-20T14:58:34.750Z,25.20
2022-11-20T15:01:07.994Z,26.92
2022-11-20T15:03:37.582Z,28.15
2022-11-20T15:06:06.588Z,29.27
2022-11-20T15:08:34.979Z,29.25
2022-11-20T15:11:02.894Z,27.85
2022-11-20T15:13:35.523Z,28.52
2022-11-20T15:16:04.662Z,29.77
2022-11-20T15:18:42.440Z,30.67
2022-11-20T15:21:14.730Z,27.75
2022-11-20T15:23:42.128Z,27.23
2022-11-20T15:26:15.431Z,28.70
2022-11-20T15:28:51.273Z,38.10
2022-11-20T15:31:22.970Z,31.08
2022-11-20T15:33:50.446Z,35.03
2022-11-20T15:36:18.349Z,31.73
2022-11-20T15:38:45.474Z,29.60
2022-11-20T15:41:12.568Z,31.65
2022-11-20T15:43:39.817Z,37.13
2022-11-20T15:46:20.294Z,38.03
2022-11-20T15:48:52.712Z,41.53
2022-11-20T15:51:30.268Z,32.83
2022-11-20T15:53:57.870Z,28.48
2022-11-20T15:56:25.468Z,32.33
2022-11-20T15:58:52.751Z,40.33
2022-11-20T16:01:23.083Z,48.47
2022-11-20T16:03:50.260Z,37.65
2022-11-20T16:06:17.400Z,45.13
2022-11-20T16:08:44.996Z,42.38
2022-11-20T16:11:17.027Z,34.05
2022-11-20T16:14:02.526Z,51.13
2022-11-20T16:16:31.120Z,33.83
2022-11-20T16:18:58.581Z,30.55
2022-11-20T16:21:32.235Z,30.15
2022-11-20T16:24:00.905Z,31.25
2022-11-20T16:26:28.746Z,32.70
2022-11-20T16:28:56.103Z,31.40
2022-11-20T16:31:23.300Z,31.60
2022-11-20T16:33:55.554Z,31.45
2022-11-20T16:36:25.022Z,28.80
2022-11-20T16:38:57.206Z,29.02
2022-11-20T16:41:26.647Z,30.50
2022-11-20T16:43:58.209Z,34.25
2022-11-20T16:46:27.726Z,32.72
2022-11-20T16:48:57.512Z,29.70
2022-11-20T16:51:25.422Z,32.28
2022-11-20T16:53:53.542Z,33.83
2022-11-20T16:56:22.625Z,32.38
2022-11-20T16:58:51.322Z,29.33
2022-11-20T17:01:21.417Z,36.75
2022-11-20T17:04:08.711Z,31.60
2022-11-20T17:06:41.543Z,30.70
2022-11-20T17:09:09.581Z,31.53
2022-11-20T17:11:37.333Z,30.25
2022-11-20T17:14:07.267Z,28.50
2022-11-20T17:16:35.870Z,27.38
2022-11-20T17:19:05.682Z,30.00
2022-11-20T17:21:35.997Z,29.17
2022-11-20T17:24:06.063Z,29.00
2022-11-20T17:26:34.103Z,29.63
2022-11-20T17:29:05.380Z,31.75
2022-11-20T17:31:34.723Z,30.58
2022-11-20T17:34:02.169Z,30.63
2022-11-20T17:36:30.045Z,31.75
2022-11-20T17:38:57.754Z,30.60
2022-11-20T17:41:27.383Z,28.42
2022-11-20T17:43:59.437Z,29.38
2022-11-20T17:46:29.163Z,29.02
2022-11-20T17:48:56.797Z,27.88
2022-11-20T17:51:29.172Z,30.27
2022-11-20T17:54:01.906Z,29.50
2022-11-20T17:56:52.294Z,29.02
2022-11-20T17:59:19.570Z,28.77
2022-11-20T18:01:46.999Z,28.88
2022-11-20T18:04:14.297Z,27.35
2022-11-20T18:06:42.417Z,28.52
2022-11-20T18:09:09.905Z,28.38
2022-11-20T18:11:39.457Z,26.70
2022-11-20T18:14:32.767Z,29.25
2022-11-20T18:17:06.940Z,29.38
2022-11-20T18:19:55.733Z,32.70
2022-11-20T18:22:30.274Z,33.67
2022-11-20T18:24:57.426Z,38.10
2022-11-20T18:27:24.790Z,30.75
2022-11-20T18:29:52.584Z,31.23
2022-11-20T18:32:22.155Z,32.50
2022-11-20T18:34:49.896Z,32.25
2022-11-20T18:37:17.492Z,30.52
2022-11-20T18:39:44.571Z,28.85
2022-11-20T18:42:34.810Z,30.80
2022-11-20T18:45:04.717Z,29.38
2022-11-20T18:47:37.337Z,28.02
2022-11-20T18:50:07.324Z,29.48
2022-11-20T18:52:44.548Z,27.92
2022-11-20T18:55:12.670Z,28.77
2022-11-20T18:57:39.886Z,27.10
2022-11-20T19:02:54.773Z,28.60
2022-11-20T19:05:22.222Z,27.23
2022-11-20T19:07:49.279Z,28.20
2022-11-20T19:10:20.087Z,28.67
2022-11-20T19:12:47.170Z,28.33
2022-11-20T19:15:14.230Z,30.65
2022-11-20T19:17:41.392Z,28.02
2022-11-20T19:20:08.802Z,30.58
2022-11-20T19:22:35.856Z,28.65
2022-11-20T19:25:02.979Z,28.52
2022-11-20T19:27:30.262Z,29.55
2022-11-20T19:30:03.128Z,28.55
2022-11-20T19:32:30.624Z,29.30
2022-11-20T19:34:57.739Z,27.65
2022-11-20T19:37:25.236Z,29.23
2022-11-20T19:39:52.547Z,29.20
2022-11-20T19:42:19.623Z,29.40
2022-11-20T19:44:46.763Z,29.60
2022-11-20T19:47:14.813Z,29.30
2022-11-20T19:49:42.167Z,29.67
2022-11-20T19:52:09.447Z,31.60
2022-11-20T19:54:37.199Z,28.00
2022-11-20T19:57:04.584Z,26.48
2022-11-20T19:59:31.736Z,28.05
2022-11-20T20:01:58.878Z,28.52
2022-11-20T20:04:25.941Z,28.42
2022-11-20T20:06:52.946Z,28.38
2022-11-20T20:09:20.971Z,28.67
2022-11-20T20:11:48.203Z,29.15
2022-11-20T20:14:16.218Z,28.80
2022-11-20T20:16:43.218Z,29.48
2022-11-20T20:19:16.959Z,30.00
2022-11-20T20:24:12.465Z,27.90
2022-11-20T20:26:40.084Z,28.38
2022-11-20T20:29:07.257Z,30.60
2022-11-20T20:31:35.356Z,29.85
2022-11-20T20:34:05.121Z,29.08
2022-11-20T20:36:32.233Z,29.77
2022-11-20T20:38:59.782Z,32.17
2022-11-20T20:41:27.051Z,31.58
2022-11-20T20:44:13.560Z,31.27
2022-11-20T20:46:41.341Z,30.67
2022-11-20T20:49:08.631Z,38.58
2022-11-20T20:51:36.243Z,35.70
2022-11-20T20:54:03.807Z,32.35
2022-11-20T20:56:31.009Z,30.95
2022-11-20T20:58:58.116Z,32.25
2022-11-20T21:01:28.547Z,32.95
2022-11-20T21:03:56.645Z,31.73
2022-11-20T21:06:24.392Z,35.47
2022-11-20T21:08:51.447Z,36.03
2022-11-20T21:11:20.122Z,31.90
2022-11-20T21:13:48.270Z,33.75
2022-11-20T21:16:17.296Z,32.08
2022-11-20T21:18:44.740Z,32.22
2022-11-20T21:21:32.326Z,31.60
2022-11-20T21:23:59.570Z,33.47
2022-11-20T21:26:26.695Z,31.92
2022-11-20T21:28:54.085Z,31.00
2022-11-20T21:31:24.822Z,31.27
2022-11-20T21:33:53.919Z,32.53
2022-11-20T21:36:26.175Z,32.67
2022-11-20T21:38:55.069Z,33.28
2022-11-20T21:41:23.198Z,33.33
2022-11-20T21:44:29.000Z,34.97
2022-11-20T21:46:43.419Z,34.50
2022-11-20T21:49:10.861Z,35.53
2022-11-20T21:51:38.141Z,32.90
2022-11-20T21:54:05.480Z,33.92
2022-11-20T21:56:32.715Z,33.58
2022-11-20T21:58:59.797Z,33.08
2022-11-20T22:01:29.566Z,33.17
2022-11-20T22:04:01.566Z,34.55
2022-11-20T22:06:33.824Z,33.00
2022-11-20T22:09:02.265Z,32.40
2022-11-20T22:11:29.868Z,32.08
2022-11-20T22:14:15.787Z,31.58
2022-11-20T22:16:43.039Z,32.63
2022-11-20T22:19:10.147Z,33.75
2022-11-20T22:21:39.344Z,32.95
2022-11-20T22:24:06.465Z,31.80
2022-11-20T22:26:39.938Z,35.85
2022-11-20T22:29:10.995Z,34.30
2022-11-20T22:31:38.034Z,35.88
2022-11-20T22:34:05.042Z,35.45
2022-11-20T22:36:32.445Z,34.83
2022-11-20T22:39:02.631Z,35.75
2022-11-20T22:41:30.112Z,34.75
2022-11-20T22:44:02.392Z,32.58
2022-11-20T22:46:33.181Z,30.00
2022-11-20T22:49:02.951Z,32.47
2022-11-20T22:51:32.819Z,32.78
2022-11-20T22:54:00.834Z,31.25
2022-11-20T22:56:27.929Z,32.55
2022-11-20T22:58:55.274Z,34.88
2022-11-20T23:01:24.110Z,32.78
2022-11-20T23:03:56.282Z,32.05
2022-11-20T23:06:24.228Z,32.83
2022-11-20T23:08:51.538Z,34.10
2022-11-20T23:11:25.167Z,32.42
2022-11-20T23:13:58.213Z,31.10
2022-11-20T23:16:27.728Z,31.85
2022-11-20T23:19:00.666Z,32.67
2022-11-20T23:21:28.468Z,33.17
2022-11-20T23:23:57.224Z,33.38
2022-11-20T23:26:29.580Z,32.20
2022-11-20T23:28:57.925Z,33.17
2022-11-20T23:31:26.213Z,32.60
2022-11-20T23:33:53.492Z,32.97
2022-11-20T23:36:21.237Z,32.13
2022-11-20T23:38:48.592Z,31.25
2022-11-20T23:41:15.752Z,29.05
2022-11-20T23:43:42.837Z,33.40
2022-11-20T23:46:15.242Z,30.40
2022-11-20T23:48:44.817Z,30.05
2022-11-20T23:51:11.942Z,29.20
2022-11-20T23:53:38.956Z,31.38
2022-11-20T23:56:06.238Z,29.30
2022-11-20T23:58:35.994Z,28.60
